• Join FlightAware (Why Join?)
  • Login
  • US Flag 
10:39AM EST


 

Airport Tracker/Info


-or-


 

Live Flight TrackerFlight Track Log ✈ UAL619 ✈ 20-Apr-2013 ✈ KSJC - KDEN

Flight Track Log - Related Links

Times and Time Zones

All times are in EDT time to prevent confusion due to time zone crossing. See the UAL619 flight status page for this flight to view local times or setup timezone preferences in your user account.

Time Position Orientation Groundspeed Altitude Reporting Facility
EDT Latitude Longitude Course Direction KTS MPH feet Rate Location/Type
11:00AM 37.3833 -121.9500 63° Northeast 165 190 1,600  Level Northern Cal TRACON
11:01AM 37.4333 -121.9833 332° Northwest 211 243 4,300 1,740 Climbing Northern Cal TRACON
11:02AM 37.6880 -121.9735 354° North  Level FlightAware Approximate
11:02AM 37.4500 -121.9000 76° East 280 322 5,000  Level Northern Cal TRACON
11:03AM 37.8009 -121.9788 76° East  Level FlightAware Approximate
11:03AM 37.3833 -121.8333 142° Southeast 285 328 6,900  Level Northern Cal TRACON
11:04AM 37.8294 -121.8363 76° East  Level FlightAware Approximate
11:04AM 37.3167 -121.8000 158° South 311 358 10,000  Level Northern Cal TRACON
11:05AM 37.8672 -121.6986 63° Northeast  Level FlightAware Approximate
11:05AM 37.3000 -121.8667 253° West 312 359 12,400  Level Northern Cal TRACON
11:05AM 37.3100 -121.9011 290° West 301 346 12,900 2,160 Climbing Oakland Center
11:06AM 37.3950 -121.9500 335° Northwest 331 381 15,500 2,400 Climbing Oakland Center
11:07AM 37.4919 -121.9408 North 348 400 17,900 2,340 Climbing Oakland Center
11:08AM 37.5658 -121.8436 46° Northeast 390 449 20,300 2,220 Climbing Oakland Center
11:09AM 37.6336 -121.7314 53° Northeast 403 464 22,500 1,980 Climbing Oakland Center
11:10AM 37.7056 -121.6131 52° Northeast 422 486 24,400 1,860 Climbing Oakland Center
11:11AM 37.7797 -121.4911 52° Northeast 437 503 26,300 1,860 Climbing Oakland Center
11:12AM 37.8667 -121.3508 52° Northeast 446 513 28,300 1,620 Climbing Oakland Center
11:13AM 37.9436 -121.2217 53° Northeast 457 526 29,700 1,500 Climbing Oakland Center
11:14AM 38.0219 -121.0906 53° Northeast 466 536 31,400 1,620 Climbing Oakland Center
11:15AM 38.0822 -120.9450 62° Northeast 476 548 33,100 1,620 Climbing Oakland Center
11:16AM 38.1058 -120.7767 80° East 487 560 34,700 1,080 Climbing Oakland Center
11:17AM 38.1275 -120.6081 81° East 487 560 35,300 540 Climbing Oakland Center
11:18AM 38.1511 -120.4389 80° East 488 562 35,900 780 Climbing Oakland Center
11:19AM 38.1731 -120.2697 81° East 487 560 36,900 1,080 Climbing Oakland Center
11:20AM 38.1950 -120.1017 81° East 485 558 38,200 1,020 Climbing Oakland Center
11:21AM 38.2175 -119.9364 80° East 479 551 39,000 360 Climbing Oakland Center
11:22AM 38.2375 -119.7686 81° East 479 551 39,000  Level Oakland Center
11:23AM 38.2633 -119.5664 81° East 483 556 39,000  Level Oakland Center
11:24AM 38.2817 -119.4222 81° East 483 556 39,000  Level Oakland Center
11:25AM 38.3008 -119.2539 82° East 483 556 39,000  Level Oakland Center
11:26AM 38.3267 -119.0525 81° East 483 556 39,000  Level Oakland Center
11:27AM 38.3458 -118.8842 82° East 483 556 39,000  Level Oakland Center
11:28AM 38.3653 -118.7169 82° East 481 554 39,000  Level Oakland Center
11:30AM 38.3847 -118.5483 82° East 482 555 39,000  Level Oakland Center
11:31AM 38.4042 -118.3794 82° East 483 556 39,000  Level Oakland Center
11:32AM 38.4225 -118.2094 82° East 486 559 39,000  Level Oakland Center
11:33AM 38.4308 -118.0419 86° East 492 566 39,000  Level Oakland Center
11:34AM 38.4253 -117.8636 92° East 502 578 39,000  Level Oakland Center
11:35AM 38.4203 -117.6869 92° East 499 574 39,000  Level Oakland Center
11:35AM 38.4164 -117.5783 93° East 500 575 39,000  Level Salt Lake Center
11:36AM 38.4131 -117.5075 93° East 503 579 39,000  Level Oakland Center
11:37AM 38.4056 -117.3261 93° East 506 582 39,000  Level Oakland Center
11:37AM 38.4011 -117.2164 93° East 505 581 39,000  Level Salt Lake Center
11:38AM 38.3922 -117.0361 94° East 501 577 39,000  Level Salt Lake Center
11:39AM 38.3903 -116.9644 92° East 501 577 39,000  Level Oakland Center
11:40AM 38.3825 -116.7842 93° East 504 580 39,000  Level Oakland Center
11:41AM 38.3719 -116.5711 94° East 501 577 39,000  Level Oakland Center
11:42AM 38.3633 -116.3914 93° East 505 581 39,000  Level Oakland Center
11:42AM 38.3586 -116.3200 95° East 504 580 39,000  Level Salt Lake Center
11:43AM 38.3503 -116.1428 93° East 502 578 39,000  Level Salt Lake Center
11:44AM 38.3389 -115.9275 94° East 507 583 39,000  Level Salt Lake Center
11:45AM 38.3275 -115.7469 95° East 509 586 39,000  Level Salt Lake Center
11:46AM 38.3192 -115.5664 93° East 510 587 39,000  Level Salt Lake Center
11:47AM 38.3078 -115.3853 95° East 512 589 39,000  Level Salt Lake Center
11:48AM 38.3017 -115.2178 93° East 514 592 39,000  Level Salt Lake Center
11:49AM 38.2878 -115.0006 95° East 515 593 39,000  Level Salt Lake Center
11:50AM 38.2772 -114.8206 94° East 512 589 39,000  Level Salt Lake Center
11:52AM 38.2653 -114.6386 95° East 515 593 39,000  Level Salt Lake Center
11:53AM 38.2536 -114.4592 95° East 512 589 39,000  Level Salt Lake Center
11:54AM 38.2564 -114.2794 89° East 509 586 39,000  Level Salt Lake Center
11:55AM 38.2681 -114.1006 85° East 506 582 39,000  Level Salt Lake Center
11:56AM 38.2781 -113.9219 86° East 507 583 39,000  Level Salt Lake Center
11:57AM 38.2894 -113.7461 85° East 502 578 39,000  Level Salt Lake Center
11:58AM 38.3006 -113.5328 86° East 503 579 39,000  Level Salt Lake Center
11:59AM 38.3092 -113.3567 86° East 499 574 39,000  Level Salt Lake Center
12:00PM 38.3183 -113.1811 86° East 497 572 39,000  Level Salt Lake Center
12:01PM 38.3275 -113.0069 86° East 493 567 39,000  Level Salt Lake Center
12:02PM 38.3347 -112.8319 87° East 493 567 39,000  Level Salt Lake Center
12:03PM 38.3433 -112.6578 86° East 492 566 39,000  Level Salt Lake Center
12:04PM 38.3519 -112.4819 86° East 495 570 39,000  Level Salt Lake Center
12:05PM 38.3603 -112.3078 86° East 493 567 39,000  Level Salt Lake Center
12:06PM 38.3681 -112.1308 87° East 498 573 39,000  Level Salt Lake Center
12:07PM 38.3747 -111.9547 87° East 497 572 39,000  Level Salt Lake Center
12:08PM 38.3842 -111.7433 87° East 497 572 39,000  Level Salt Lake Center
12:09PM 38.3903 -111.5667 87° East 499 574 39,000  Level Salt Lake Center
12:10PM 38.3972 -111.3911 87° East 497 572 39,000  Level Salt Lake Center
12:11PM 38.4025 -111.2133 88° East 501 577 39,000  Level Salt Lake Center
12:12PM 38.4083 -111.0356 88° East 503 579 39,000  Level Salt Lake Center
12:13PM 38.4131 -110.8475 88° East 503 579 39,000  Level Salt Lake Center
12:14PM 38.4189 -110.6772 87° East 504 580 39,000  Level Salt Lake Center
12:15PM 38.4194 -110.5611 90° East 506 582 39,000  Level Denver Center
12:16PM 38.4244 -110.3603 88° East 508 585 39,000  Level Denver Center
12:16PM 38.4264 -110.3056 87° East 507 583 39,000  Level Salt Lake Center
12:17PM 38.4306 -110.1050 88° East 508 585 39,000  Level Salt Lake Center
12:18PM 38.4319 -109.9889 89° East 509 586 39,000  Level Denver Center
12:19PM 38.4344 -109.8156 89° East 510 587 39,000  Level Denver Center
12:20PM 38.4383 -109.6156 89° East 510 587 39,000  Level Denver Center
12:21PM 38.4400 -109.4456 89° East 505 581 39,000  Level Denver Center
12:22PM 38.4417 -109.2744 89° East 505 581 39,000  Level Denver Center
12:23PM 38.4444 -109.0761 89° East 503 579 39,000  Level Denver Center
12:24PM 38.4464 -108.9067 89° East 502 578 39,000  Level Denver Center
12:25PM 38.4489 -108.7108 89° East 498 573 39,000  Level Denver Center
12:26PM 38.4494 -108.5408 90° East 502 578 39,000  Level Denver Center
12:27PM 38.4506 -108.3425 90° East 502 578 39,000  Level Denver Center
12:28PM 38.4517 -108.1747 89° East 498 573 39,000  Level Denver Center
12:29PM 38.4517 -107.9750 90° East 503 579 39,000 -300 Level Denver Center
12:30PM 38.4519 -107.8072 90° East 499 574 38,400 -780 Descending Denver Center
12:31PM 38.4550 -107.6150 89° East 486 559 37,500 -900 Descending Denver Center
12:32PM 38.5081 -107.4694 65° Northeast 475 547 36,600 -900 Descending Denver Center
12:33PM 38.5789 -107.3106 60° Northeast 465 535 35,700 -780 Descending Denver Center
12:34PM 38.6439 -107.1656 60° Northeast 461 531 35,000 -360 Descending Denver Center
12:35PM 38.7067 -107.0233 60° Northeast 460 529 35,000  Level Denver Center
12:36PM 38.7703 -106.8822 60° Northeast 459 528 35,000  Level Denver Center
12:37PM 38.8322 -106.7383 61° Northeast 461 531 35,000 -660 Level Denver Center
12:38PM 38.9011 -106.5833 60° Northeast 462 532 33,700 -1,140 Descending Denver Center
12:39PM 38.9761 -106.4242 59° Northeast 466 536 32,700 -1,440 Descending Denver Center
12:40PM 39.0381 -106.2897 59° Northeast 460 529 30,800 -2,040 Descending Denver Center
12:42PM 39.1025 -106.1436 60° Northeast 438 504 28,500 -2,100 Descending Denver Center
12:43PM 39.1606 -106.0131 60° Northeast 419 482 26,500 -1,980 Descending Denver Center
12:44PM 39.2158 -105.8869 60° Northeast 404 465 24,500 -1,980 Descending Denver Center
12:45PM 39.2700 -105.7656 60° Northeast 390 449 22,500 -1,740 Descending Denver Center
12:46PM 39.3231 -105.6458 60° Northeast 382 440 21,000 -1,620 Descending Denver Center
12:47PM 39.3728 -105.5311 61° Northeast 367 422 19,200 -1,500 Descending Denver Center
12:48PM 39.4006 -105.4011 75° East 344 396 17,900 -1,440 Descending Denver Center
12:49PM 39.4044 -105.2756 88° East 330 380 16,300 -1,500 Descending Denver Center
12:50PM 39.4044 -105.1642 90° East 317 365 14,800 -1,320 Descending Denver Center
12:51PM 39.3919 -105.0478 98° East 307 353 13,600 -900 Descending Denver Center
12:52PM 39.3819 -104.9506 98° East 277 319 13,000 -540 Descending Denver Center
12:53PM 39.4000 -104.8583 76° East 256 295 12,600 -480 Descending Denver Center
12:54PM 39.4381 -104.7853 56° Northeast 247 284 12,100 -540 Descending Denver Center
12:55PM 39.4928 -104.7233 41° Northeast 245 282 11,600 -600 Descending Denver Center
12:56PM 39.5531 -104.6819 28° Northeast 247 284 10,900 -1,020 Descending Denver Center
12:57PM 39.6197 -104.6656 11° North 230 265 9,600 -1,260 Descending Denver Center
12:58PM 39.6822 -104.6622 North 225 259 8,400 -1,200 Descending Denver Center